Time;durP1;ratioP1;P1;durP2;ratioP2;P2;SDS_P1;SDS_P2;PMS_P1;PMS_P2;Temp;Humidity;BMP_temperature;BMP_pressure;BME280_temperature;BME280_humidity;BME280_pressure;Samples;Min_cycle;Max_cycle;Signal;HPM_P1;HPM_P2
2024/04/13 00:00:37;;;;;;;3.67;2.03;;;24.50;53.40;;;;;;11139222;26;19996;-41
2024/04/13 00:05:41;;;;;;;3.58;1.70;;;24.60;53.20;;;;;;11138905;26;19997;-41
2024/04/13 00:10:45;;;;;;;2.97;2.00;;;24.50;53.10;;;;;;11138876;26;20011;-42
2024/04/13 00:15:59;;;;;;;4.22;1.95;;;24.50;52.80;;;;;;11138630;26;20000;-41
2024/04/13 00:21:02;;;;;;;3.53;1.95;;;24.40;52.70;;;;;;11137104;26;20411;-42
2024/04/13 00:26:06;;;;;;;2.50;1.90;;;24.50;54.10;;;;;;11138409;26;20434;-42
2024/04/13 00:31:12;;;;;;;3.47;1.90;;;24.40;54.20;;;;;;11138252;26;20010;-42
2024/04/13 00:36:15;;;;;;;2.97;1.95;;;24.30;53.70;;;;;;11138284;26;20416;-42
2024/04/13 00:41:19;;;;;;;4.32;2.20;;;24.40;53.40;;;;;;11138084;26;20000;-42
2024/04/13 00:46:26;;;;;;;2.95;1.73;;;24.50;55.60;;;;;;11137777;26;19997;-42
2024/04/13 00:51:29;;;;;;;2.97;2.10;;;24.50;56.40;;;;;;11137841;26;20011;-44
2024/04/13 00:56:32;;;;;;;3.00;1.80;;;24.40;56.20;;;;;;11137245;26;20004;-42
2024/04/13 01:01:38;;;;;;;3.40;1.90;;;24.40;55.80;;;;;;11137285;26;20051;-42
2024/04/13 01:06:42;;;;;;;2.30;1.60;;;24.30;55.60;;;;;;11137072;26;20011;-42
2024/04/13 01:11:45;;;;;;;4.13;1.90;;;24.40;55.10;;;;;;11137022;26;20489;-42
2024/04/13 01:16:51;;;;;;;3.70;1.90;;;24.30;57.00;;;;;;11137315;26;20005;-41
2024/04/13 01:21:54;;;;;;;3.60;1.95;;;24.40;55.80;;;;;;11136756;26;20408;-41
2024/04/13 01:27:00;;;;;;;2.00;1.52;;;24.40;55.30;;;;;;11136328;26;20011;-42
2024/04/13 01:32:03;;;;;;;2.22;1.50;;;24.30;55.00;;;;;;11135972;26;20033;-43
2024/04/13 01:37:07;;;;;;;3.22;1.83;;;24.30;54.80;;;;;;11136159;26;20004;-44
2024/04/13 01:42:13;;;;;;;3.15;1.73;;;24.30;54.50;;;;;;11136139;26;19996;-43
2024/04/13 01:47:17;;;;;;;3.20;1.60;;;24.20;54.30;;;;;;11135684;26;20404;-42
2024/04/13 01:52:20;;;;;;;2.85;1.70;;;24.30;53.90;;;;;;11135655;26;20014;-42
2024/04/13 01:57:26;;;;;;;2.38;1.73;;;24.30;53.80;;;;;;11135400;26;19997;-42
2024/04/13 02:02:29;;;;;;;3.45;1.75;;;24.10;53.70;;;;;;11135435;26;20015;-42
2024/04/13 02:07:33;;;;;;;2.35;1.70;;;24.10;53.50;;;;;;11135082;26;20015;-42
2024/04/13 02:12:39;;;;;;;4.13;1.85;;;24.00;53.30;;;;;;11135051;26;19996;-41
2024/04/13 02:17:44;;;;;;;3.40;1.80;;;24.10;52.90;;;;;;11134704;26;20454;-42
2024/04/13 02:22:47;;;;;;;2.85;1.77;;;24.10;52.80;;;;;;11134822;26;20014;-41
2024/04/13 02:27:53;;;;;;;2.40;1.70;;;24.10;53.20;;;;;;11134340;26;20462;-42
2024/04/13 02:32:57;;;;;;;3.00;1.60;;;24.10;52.30;;;;;;11134395;26;20010;-42
2024/04/13 02:38:00;;;;;;;3.28;1.52;;;24.10;52.30;;;;;;11134027;26;20407;-42
2024/04/13 02:43:06;;;;;;;2.10;1.40;;;24.00;52.40;;;;;;11133858;26;20008;-42
2024/04/13 02:48:10;;;;;;;2.38;1.60;;;24.00;52.30;;;;;;11141172;26;20011;-42
2024/04/13 02:53:13;;;;;;;2.10;1.52;;;24.00;52.20;;;;;;11141039;26;20008;-42
2024/04/13 02:58:19;;;;;;;2.88;1.70;;;24.00;52.30;;;;;;11141063;26;20008;-43
2024/04/13 03:03:22;;;;;;;3.30;1.90;;;24.00;52.20;;;;;;11140793;26;20001;-42
2024/04/13 03:08:25;;;;;;;2.50;1.60;;;23.90;53.90;;;;;;11140574;26;20010;-41
2024/04/13 03:13:31;;;;;;;2.40;1.48;;;23.40;57.50;;;;;;11140437;26;19997;-43
2024/04/13 03:18:37;;;;;;;2.45;1.67;;;23.00;56.70;;;;;;11140355;26;19996;-42
2024/04/13 03:23:41;;;;;;;2.58;1.45;;;23.20;56.20;;;;;;11140468;26;20077;-42
2024/04/13 03:28:47;;;;;;;2.92;1.60;;;23.20;55.60;;;;;;11140047;26;20014;-42
2024/04/13 03:33:50;;;;;;;2.00;1.65;;;23.10;55.10;;;;;;11139588;26;20012;-42
2024/04/13 03:38:56;;;;;;;3.08;1.63;;;23.30;54.60;;;;;;11139753;26;20431;-42
2024/04/13 03:44:02;;;;;;;2.83;1.52;;;23.20;54.30;;;;;;11139431;26;20008;-43
2024/04/13 03:49:06;;;;;;;1.70;1.42;;;23.20;54.40;;;;;;11139449;26;20004;-42
2024/04/13 03:54:11;;;;;;;1.80;1.33;;;23.30;54.10;;;;;;11139094;26;19997;-43
2024/04/13 03:59:18;;;;;;;1.85;1.40;;;23.40;54.20;;;;;;11139190;26;20416;-43
2024/04/13 04:04:21;;;;;;;2.58;1.50;;;23.00;54.80;;;;;;11138946;26;19996;-43
2024/04/13 04:09:25;;;;;;;2.42;1.42;;;22.90;55.10;;;;;;11138899;26;19996;-43
2024/04/13 04:14:31;;;;;;;1.67;1.33;;;22.80;55.50;;;;;;11138753;26;20015;-42
2024/04/13 04:19:35;;;;;;;1.67;1.30;;;22.80;55.20;;;;;;11138732;26;20000;-46
2024/04/13 04:24:38;;;;;;;1.65;1.33;;;22.80;55.20;;;;;;11138407;26;20480;-42
2024/04/13 04:29:44;;;;;;;2.17;1.40;;;22.60;56.00;;;;;;11138317;26;20346;-42
2024/04/13 04:34:47;;;;;;;1.52;1.40;;;22.70;55.70;;;;;;11137656;26;19996;-42
2024/04/13 04:39:50;;;;;;;2.47;1.52;;;22.80;55.50;;;;;;11136616;26;20024;-42
2024/04/13 04:44:56;;;;;;;2.53;1.23;;;23.10;55.00;;;;;;11137764;26;20008;-43
2024/04/13 04:50:00;;;;;;;1.90;1.50;;;23.40;54.20;;;;;;11137586;26;19997;-41
2024/04/13 04:55:04;;;;;;;1.52;1.38;;;23.40;54.00;;;;;;11137611;26;20011;-42
2024/04/13 05:00:14;;;;;;;2.83;1.40;;;23.20;54.30;;;;;;11137553;26;20454;-43
2024/04/13 05:05:17;;;;;;;1.58;1.40;;;23.10;54.70;;;;;;11137210;26;20004;-42
2024/04/13 05:10:21;;;;;;;1.70;1.20;;;23.10;54.80;;;;;;11136326;26;20000;-42
2024/04/13 05:15:27;;;;;;;1.42;1.20;;;23.00;54.80;;;;;;11136950;26;19996;-42
2024/04/13 05:20:31;;;;;;;1.92;1.40;;;22.90;54.80;;;;;;11136773;26;20012;-41
2024/04/13 05:25:34;;;;;;;2.25;1.30;;;23.10;54.50;;;;;;11136225;26;20377;-42
2024/04/13 05:30:45;;;;;;;2.63;1.40;;;22.90;55.00;;;;;;11136418;26;20044;-42
2024/04/13 05:35:49;;;;;;;2.45;1.48;;;23.00;54.40;;;;;;11136336;26;20469;-43
2024/04/13 05:40:52;;;;;;;2.05;1.50;;;23.20;53.90;;;;;;11136199;26;20012;-42
2024/04/13 05:45:58;;;;;;;2.55;1.42;;;23.30;53.60;;;;;;11135833;26;20011;-42
2024/04/13 05:51:02;;;;;;;1.67;1.17;;;23.30;53.60;;;;;;11135757;26;20008;-42
2024/04/13 05:56:09;;;;;;;1.52;1.27;;;23.70;53.80;;;;;;11135523;26;19996;-42
2024/04/13 06:01:15;;;;;;;2.35;1.52;;;23.70;52.60;;;;;;11135455;26;20036;-43
2024/04/13 06:06:18;;;;;;;4.32;1.65;;;23.80;51.90;;;;;;11135182;26;20477;-42
2024/04/13 06:11:22;;;;;;;3.58;1.50;;;24.00;51.40;;;;;;11135096;26;20011;-42
2024/04/13 06:16:27;;;;;;;6.63;1.38;;;24.10;51.50;;;;;;11134899;26;20358;-42
2024/04/13 06:21:31;;;;;;;4.60;1.50;;;23.90;52.50;;;;;;11140015;26;20015;-41
2024/04/13 06:26:34;;;;;;;10.40;1.95;;;24.10;52.40;;;;;;11141865;26;20011;-42
2024/04/13 06:31:40;;;;;;;5.78;1.48;;;24.30;51.80;;;;;;11141899;26;19997;-42
2024/04/13 06:36:44;;;;;;;3.05;1.50;;;24.50;55.10;;;;;;11141772;26;20035;-42
2024/04/13 06:41:47;;;;;;;7.45;1.40;;;24.80;53.40;;;;;;11141374;26;19996;-42
2024/04/13 06:46:53;;;;;;;21.63;1.83;;;24.30;53.50;;;;;;11141244;26;19997;-43
2024/04/13 06:51:56;;;;;;;3.90;1.67;;;24.40;53.50;;;;;;11141362;26;20454;-42
2024/04/13 06:56:59;;;;;;;4.53;1.70;;;24.20;52.20;;;;;;11140924;26;20066;-42
2024/04/13 07:02:05;;;;;;;8.07;1.98;;;24.30;52.50;;;;;;11140861;26;20079;-44
2024/04/13 07:07:09;;;;;;;5.88;1.88;;;24.40;51.40;;;;;;11140613;26;20515;-41
2024/04/13 07:12:13;;;;;;;5.18;1.73;;;24.30;51.80;;;;;;11140616;26;20015;-42
2024/04/13 07:17:19;;;;;;;8.23;1.80;;;24.30;51.10;;;;;;11140409;26;20040;-40
2024/04/13 07:22:22;;;;;;;5.35;1.60;;;24.50;51.60;;;;;;11140544;26;20465;-41
2024/04/13 07:27:25;;;;;;;4.63;1.73;;;24.50;51.70;;;;;;11139655;26;20012;-40
2024/04/13 07:32:31;;;;;;;4.30;2.05;;;24.70;51.20;;;;;;11139499;26;20011;-41
2024/04/13 07:37:35;;;;;;;6.30;2.00;;;24.20;51.70;;;;;;11137906;26;20001;-41
2024/04/13 07:42:38;;;;;;;5.20;1.80;;;23.90;52.10;;;;;;11139074;26;20470;-41
2024/04/13 07:47:44;;;;;;;7.68;1.88;;;23.90;52.60;;;;;;11139224;26;20004;-40
2024/04/13 07:52:47;;;;;;;6.07;1.85;;;23.60;54.50;;;;;;11139606;26;20010;-40
2024/04/13 07:57:51;;;;;;;8.23;2.88;;;23.60;55.30;;;;;;11139358;26;20346;-43
2024/04/13 08:02:57;;;;;;;7.13;2.97;;;24.10;54.70;;;;;;11067762;26;20429;-41
2024/04/13 08:08:01;;;;;;;5.80;2.85;;;24.70;53.50;;;;;;11066758;26;19997;-41
2024/04/13 08:13:04;;;;;;;9.18;2.80;;;24.30;54.50;;;;;;11066714;26;20011;-40
2024/04/13 08:18:10;;;;;;;5.22;2.30;;;24.50;53.40;;;;;;11066542;26;20455;-41
2024/04/13 08:23:14;;;;;;;7.30;2.20;;;24.50;52.10;;;;;;11066941;26;20019;-41
2024/04/13 08:28:17;;;;;;;7.55;2.22;;;24.50;51.70;;;;;;11066178;26;20012;-45
2024/04/13 08:33:23;;;;;;;15.68;2.35;;;24.50;51.10;;;;;;11066173;26;20015;-41
2024/04/13 08:38:26;;;;;;;9.10;2.42;;;24.70;51.70;;;;;;11066205;26;20009;-40
2024/04/13 08:43:29;;;;;;;6.50;1.98;;;24.70;50.90;;;;;;11064577;26;20005;-40
2024/04/13 08:48:36;;;;;;;7.00;1.90;;;24.40;52.60;;;;;;11065587;26;19997;-41
2024/04/13 08:53:40;;;;;;;3.45;1.50;;;24.50;52.80;;;;;;11065682;26;20466;-40
2024/04/13 08:58:45;;;;;;;7.75;1.40;;;24.90;52.60;;;;;;11065464;26;19997;-41
2024/04/13 09:03:51;;;;;;;13.23;2.30;;;24.90;53.90;;;;;;11065241;26;20012;-40
2024/04/13 09:08:54;;;;;;;8.02;2.58;;;25.20;53.20;;;;;;11086038;26;20015;-41
2024/04/13 09:13:57;;;;;;;5.22;2.03;;;25.00;53.10;;;;;;11094864;26;20011;-47
2024/04/13 09:19:03;;;;;;;34.83;7.45;;;25.00;54.70;;;;;;11072057;26;20004;-47
2024/04/13 09:24:07;;;;;;;16.25;4.60;;;25.00;52.80;;;;;;11122726;26;20442;-41
2024/04/13 09:29:11;;;;;;;21.15;4.75;;;24.80;52.80;;;;;;11099675;26;20011;-41
2024/04/13 09:34:21;;;;;;;11.10;3.47;;;25.20;51.40;;;;;;11129682;26;20008;-41
2024/04/13 09:39:25;;;;;;;14.98;3.53;;;24.80;52.90;;;;;;11080946;26;20047;-42
2024/04/13 09:44:29;;;;;;;24.38;4.00;;;25.10;52.60;;;;;;11131910;26;20012;-41
2024/04/13 09:49:35;;;;;;;18.63;2.95;;;25.20;53.70;;;;;;11135007;26;20453;-41
2024/04/13 09:54:38;;;;;;;8.48;2.67;;;25.10;54.40;;;;;;11138059;26;20011;-40
2024/04/13 09:59:41;;;;;;;13.80;2.72;;;25.30;53.80;;;;;;11141218;26;20000;-41
2024/04/13 10:04:47;;;;;;;10.80;1.90;;;25.00;54.20;;;;;;11141000;26;20004;-41
2024/04/13 10:09:53;;;;;;;6.30;2.08;;;25.20;53.60;;;;;;11141080;26;20015;-40
2024/04/13 10:14:56;;;;;;;5.13;2.03;;;25.30;53.20;;;;;;11140621;26;20014;-41
2024/04/13 10:20:02;;;;;;;6.65;2.15;;;25.20;51.90;;;;;;11140763;26;20014;-41
2024/04/13 10:25:07;;;;;;;6.10;2.13;;;25.30;51.20;;;;;;11140745;26;20480;-43
2024/04/13 10:30:11;;;;;;;8.15;2.15;;;25.10;51.10;;;;;;11140516;26;20000;-45
2024/04/13 10:35:20;;;;;;;5.50;1.90;;;25.20;51.60;;;;;;11140135;26;20008;-40
2024/04/13 10:40:26;;;;;;;4.22;2.17;;;24.80;52.40;;;;;;11140227;26;20341;-41
2024/04/13 10:45:29;;;;;;;3.90;1.80;;;25.00;52.10;;;;;;11139368;26;20104;-42
2024/04/13 10:50:35;;;;;;;12.85;2.33;;;25.10;52.10;;;;;;11139635;26;19997;-41
2024/04/13 10:55:38;;;;;;;6.10;1.85;;;24.70;54.20;;;;;;11139454;26;20015;-41
2024/04/13 11:00:46;;;;;;;6.15;1.83;;;24.80;54.50;;;;;;11139175;26;20008;-42
2024/04/13 11:05:52;;;;;;;4.97;1.70;;;24.80;54.00;;;;;;11112584;26;20366;-46
2024/04/13 11:10:56;;;;;;;9.40;1.63;;;24.90;54.40;;;;;;11103189;26;20001;-41
2024/04/13 11:15:59;;;;;;;6.22;1.70;;;25.40;53.40;;;;;;11123064;26;20446;-40
2024/04/13 11:21:07;;;;;;;5.95;2.05;;;25.20;54.10;;;;;;11102657;26;20433;-41
2024/04/13 11:26:10;;;;;;;7.47;2.20;;;24.90;53.80;;;;;;11111684;26;20000;-41
2024/04/13 11:31:13;;;;;;;7.10;2.28;;;25.00;53.10;;;;;;11112756;26;20020;-46
2024/04/13 11:36:23;;;;;;;4.93;2.10;;;25.00;52.70;;;;;;11114596;26;20008;-41
2024/04/13 11:41:26;;;;;;;5.88;1.65;;;25.00;52.40;;;;;;11127048;26;20028;-41
2024/04/13 11:46:29;;;;;;;6.85;1.85;;;25.10;52.20;;;;;;11129402;26;20009;-41
2024/04/13 11:51:35;;;;;;;12.40;1.60;;;25.00;51.90;;;;;;11065652;26;20008;-43
2024/04/13 11:56:42;;;;;;;27.15;2.28;;;25.30;51.10;;;;;;11088144;26;20750;-42
2024/04/13 12:01:45;;;;;;;11.95;2.25;;;25.70;51.20;;;;;;11113979;26;20378;-44
2024/04/13 12:06:51;;;;;;;14.30;2.63;;;25.40;51.30;;;;;;11114073;26;20016;-40
2024/04/13 12:11:54;;;;;;;8.23;2.17;;;25.40;50.90;;;;;;11133066;26;20011;-42
2024/04/13 12:16:57;;;;;;;7.30;2.20;;;25.60;50.60;;;;;;11115338;26;20438;-41
2024/04/13 12:22:03;;;;;;;5.63;1.75;;;25.70;49.60;;;;;;11132173;26;20016;-41
2024/04/13 12:27:07;;;;;;;3.97;1.70;;;25.30;48.80;;;;;;11121162;26;20000;-41
2024/04/13 12:32:11;;;;;;;4.22;1.50;;;25.30;48.30;;;;;;11120264;26;20016;-47
2024/04/13 12:37:17;;;;;;;2.83;1.50;;;25.10;47.70;;;;;;11111924;26;20000;-47
2024/04/13 12:42:23;;;;;;;7.60;1.85;;;25.60;46.80;;;;;;11114365;26;20000;-42
2024/04/13 12:47:26;;;;;;;7.05;1.60;;;25.30;47.50;;;;;;11134080;26;20004;-42
2024/04/13 12:52:33;;;;;;;8.32;1.67;;;25.40;47.20;;;;;;11135896;26;20015;-41
2024/04/13 12:57:36;;;;;;;4.35;1.58;;;25.60;47.00;;;;;;11136513;26;20408;-43
2024/04/13 13:02:40;;;;;;;4.90;1.30;;;25.60;46.70;;;;;;11136147;26;20008;-41
2024/04/13 13:07:46;;;;;;;4.25;1.33;;;25.60;47.00;;;;;;11135877;26;20040;-41
2024/04/13 13:12:49;;;;;;;2.78;1.50;;;25.40;47.00;;;;;;11136032;26;20019;-41
2024/04/13 13:17:52;;;;;;;6.05;1.35;;;25.40;47.10;;;;;;11135520;26;20008;-41
2024/04/13 13:22:58;;;;;;;4.32;1.48;;;25.50;47.10;;;;;;11135706;26;20016;-42
2024/04/13 13:28:01;;;;;;;10.25;1.42;;;25.50;46.80;;;;;;11134423;26;20000;-42
2024/04/13 13:33:05;;;;;;;5.57;1.40;;;26.10;47.10;;;;;;11135151;26;20004;-45
2024/04/13 13:38:11;;;;;;;5.35;1.52;;;26.10;46.80;;;;;;11134881;26;20015;-42
2024/04/13 13:43:14;;;;;;;2.97;1.00;;;26.10;47.10;;;;;;11134467;26;20015;-41
2024/04/13 13:48:18;;;;;;;2.88;1.23;;;26.00;47.50;;;;;;11134235;26;20339;-42
2024/04/13 13:53:24;;;;;;;2.40;1.05;;;25.70;48.00;;;;;;11132736;26;20397;-42
2024/04/13 13:58:27;;;;;;;3.42;1.48;;;25.80;48.10;;;;;;11127350;26;20016;-44
2024/04/13 14:03:31;;;;;;;3.33;1.10;;;25.90;47.90;;;;;;11126766;26;20011;-44
2024/04/13 14:08:37;;;;;;;1.27;0.80;;;25.90;47.90;;;;;;11127857;26;20082;-43
2024/04/13 14:13:40;;;;;;;3.72;1.05;;;25.70;48.40;;;;;;11133761;26;20000;-41
2024/04/13 14:18:44;;;;;;;3.80;1.08;;;25.70;48.80;;;;;;11133286;26;20000;-42
2024/04/13 14:23:49;;;;;;;2.53;1.08;;;25.80;49.00;;;;;;11133958;26;20012;-41
2024/04/13 14:28:53;;;;;;;2.05;1.05;;;26.00;48.50;;;;;;11133111;26;19996;-42
2024/04/13 14:33:56;;;;;;;1.90;0.90;;;25.90;48.80;;;;;;11132501;26;20000;-42
2024/04/13 14:39:02;;;;;;;3.03;0.90;;;25.90;48.60;;;;;;11132950;26;20454;-42
2024/04/13 14:44:05;;;;;;;3.50;1.00;;;25.90;48.70;;;;;;11139576;26;19996;-41
2024/04/13 14:49:09;;;;;;;1.17;0.85;;;25.70;50.80;;;;;;11139995;26;20004;-42
2024/04/13 14:54:15;;;;;;;1.83;1.02;;;25.90;50.30;;;;;;11139806;26;20004;-41
2024/04/13 14:59:18;;;;;;;1.52;0.98;;;25.80;50.10;;;;;;11139773;26;20008;-42
2024/04/13 15:04:21;;;;;;;2.22;1.08;;;26.00;50.00;;;;;;11139099;26;20455;-42
2024/04/13 15:09:27;;;;;;;3.17;1.20;;;26.00;50.30;;;;;;11139163;26;20369;-41
2024/04/13 15:14:31;;;;;;;2.67;1.20;;;26.00;50.30;;;;;;11139234;26;20035;-41
2024/04/13 15:19:34;;;;;;;3.35;1.20;;;26.20;50.00;;;;;;11138604;26;20470;-41
2024/04/13 15:24:40;;;;;;;3.60;1.30;;;26.30;49.90;;;;;;11139295;26;20001;-42
2024/04/13 15:29:43;;;;;;;3.22;1.20;;;26.20;49.90;;;;;;11138296;26;20016;-42
2024/04/13 15:34:46;;;;;;;1.60;1.30;;;26.70;49.60;;;;;;11135100;26;20012;-42
2024/04/13 15:39:52;;;;;;;2.55;1.25;;;26.40;50.40;;;;;;11138671;26;20012;-41
2024/04/13 15:44:56;;;;;;;2.38;1.20;;;26.30;50.70;;;;;;11138012;26;20465;-41
2024/04/13 15:49:59;;;;;;;4.57;1.50;;;26.50;50.60;;;;;;11138223;26;20032;-42
2024/04/13 15:55:06;;;;;;;2.47;1.38;;;26.40;51.00;;;;;;11138042;26;20011;-41
2024/04/13 16:00:12;;;;;;;3.05;1.35;;;26.40;51.20;;;;;;11137657;26;20349;-42
2024/04/13 16:05:15;;;;;;;4.40;1.52;;;26.60;51.10;;;;;;11137605;26;20004;-42
2024/04/13 16:10:21;;;;;;;4.07;1.90;;;26.40;51.70;;;;;;11137451;26;20008;-42
2024/04/13 16:15:25;;;;;;;7.97;2.00;;;25.90;53.40;;;;;;11137074;26;20000;-43
2024/04/13 16:20:28;;;;;;;3.40;2.17;;;25.70;54.40;;;;;;11137012;26;20000;-42
2024/04/13 16:25:34;;;;;;;10.82;2.40;;;25.70;54.40;;;;;;11137381;26;20012;-42
2024/04/13 16:30:37;;;;;;;3.15;2.30;;;25.50;54.90;;;;;;11136419;26;20008;-41
2024/04/13 16:35:42;;;;;;;5.43;2.40;;;25.60;54.90;;;;;;11136903;26;20019;-42
2024/04/13 16:40:48;;;;;;;6.70;2.55;;;25.70;54.40;;;;;;11137120;26;20012;-42
2024/04/13 16:45:51;;;;;;;11.68;8.32;;;25.50;55.30;;;;;;11135929;26;20012;-43
2024/04/13 16:50:58;;;;;;;29.02;12.68;;;25.70;56.60;;;;;;11136339;26;20008;-45
2024/04/13 16:56:03;;;;;;;28.85;11.38;;;26.10;55.40;;;;;;11059327;26;20009;-42
2024/04/13 17:01:07;;;;;;;18.80;10.63;;;25.90;56.20;;;;;;11063826;26;20016;-41
2024/04/13 17:06:11;;;;;;;13.68;8.93;;;26.20;56.70;;;;;;11062342;26;20008;-41
2024/04/13 17:11:17;;;;;;;12.95;6.75;;;26.20;57.10;;;;;;11111895;26;20012;-42
2024/04/13 17:16:23;;;;;;;11.50;5.90;;;25.90;57.10;;;;;;11135576;26;20361;-42
2024/04/13 17:21:26;;;;;;;9.02;5.40;;;26.00;56.70;;;;;;11135434;26;20503;-42
2024/04/13 17:26:33;;;;;;;12.85;5.13;;;26.20;56.10;;;;;;11134697;26;20377;-41
2024/04/13 17:31:36;;;;;;;6.30;4.30;;;26.10;56.50;;;;;;11135024;26;20074;-41
2024/04/13 17:36:39;;;;;;;9.73;4.30;;;26.50;55.60;;;;;;11134984;26;20011;-43
2024/04/13 17:41:45;;;;;;;7.13;4.15;;;26.90;54.80;;;;;;11135169;26;20012;-41
2024/04/13 17:46:48;;;;;;;9.45;3.60;;;26.60;55.70;;;;;;11134393;26;20008;-41
2024/04/13 17:51:52;;;;;;;8.13;3.67;;;26.80;55.40;;;;;;11135269;26;20043;-41
2024/04/13 17:56:58;;;;;;;6.72;3.38;;;26.70;56.10;;;;;;11134058;26;20000;-41
2024/04/13 18:02:01;;;;;;;8.57;3.50;;;26.60;56.80;;;;;;11133630;26;20012;-42
2024/04/13 18:07:05;;;;;;;7.32;3.40;;;26.50;57.40;;;;;;11133646;26;19997;-41
2024/04/13 18:12:11;;;;;;;6.68;3.25;;;26.40;58.00;;;;;;11133595;26;20004;-44
2024/04/13 18:17:14;;;;;;;4.70;3.20;;;26.00;58.80;;;;;;11139804;26;20015;-44
2024/04/13 18:22:17;;;;;;;5.85;3.35;;;26.20;57.90;;;;;;11141054;26;20012;-41
2024/04/13 18:27:23;;;;;;;7.10;2.80;;;26.10;58.20;;;;;;11140238;26;20008;-41
2024/04/13 18:32:26;;;;;;;5.55;3.10;;;25.70;58.30;;;;;;11140342;26;20357;-42
2024/04/13 18:37:29;;;;;;;7.03;3.40;;;25.50;58.70;;;;;;11140732;26;20000;-42
2024/04/13 18:42:35;;;;;;;5.00;2.97;;;25.70;58.40;;;;;;11140364;26;20012;-41
2024/04/13 18:47:38;;;;;;;7.40;3.05;;;25.80;58.20;;;;;;11140040;26;20000;-41
2024/04/13 18:52:42;;;;;;;7.00;2.95;;;26.10;56.80;;;;;;11140090;26;20004;-42
2024/04/13 18:57:48;;;;;;;5.72;3.22;;;26.20;56.50;;;;;;11139568;26;20467;-42
2024/04/13 19:02:52;;;;;;;8.48;3.35;;;26.10;56.70;;;;;;11139402;26;20008;-42
2024/04/13 19:07:58;;;;;;;5.80;3.20;;;26.30;56.20;;;;;;11138828;26;20008;-42
2024/04/13 19:13:04;;;;;;;5.20;3.00;;;26.40;55.80;;;;;;11139795;26;20019;-41
2024/04/13 19:18:08;;;;;;;5.55;3.22;;;25.60;57.60;;;;;;11139332;26;20012;-43
2024/04/13 19:23:11;;;;;;;13.95;3.53;;;25.70;57.70;;;;;;11138820;26;20008;-42
2024/04/13 19:28:17;;;;;;;8.65;3.53;;;25.50;58.40;;;;;;11138091;26;20004;-42
2024/04/13 19:33:20;;;;;;;6.88;3.88;;;25.30;58.90;;;;;;11138541;26;20015;-45
2024/04/13 19:38:24;;;;;;;6.68;3.90;;;25.50;58.80;;;;;;11138512;26;20420;-42
2024/04/13 19:43:30;;;;;;;6.57;3.88;;;25.50;58.80;;;;;;11138507;26;20015;-42
2024/04/13 19:48:33;;;;;;;5.72;3.30;;;25.60;58.50;;;;;;11138697;26;20011;-42
2024/04/13 19:53:36;;;;;;;7.47;3.42;;;25.80;58.10;;;;;;11137875;26;20015;-43
2024/04/13 19:58:42;;;;;;;5.28;3.33;;;26.10;57.10;;;;;;11138144;26;20012;-42
2024/04/13 20:03:45;;;;;;;6.72;3.38;;;26.20;57.00;;;;;;11137928;26;19997;-42
2024/04/13 20:08:49;;;;;;;6.90;3.47;;;25.60;58.10;;;;;;11137188;26;20012;-43
2024/04/13 20:13:55;;;;;;;6.05;3.53;;;25.50;58.40;;;;;;11138203;26;20014;-42
2024/04/13 20:18:58;;;;;;;6.70;3.72;;;25.60;58.20;;;;;;11137919;26;20010;-42
2024/04/13 20:24:01;;;;;;;6.32;3.90;;;25.60;58.40;;;;;;11137168;26;20008;-43
2024/04/13 20:29:07;;;;;;;7.40;3.50;;;25.50;58.50;;;;;;11137225;26;20004;-42
2024/04/13 20:34:11;;;;;;;7.10;3.38;;;25.80;57.80;;;;;;11136379;26;20015;-43
2024/04/13 20:39:15;;;;;;;5.95;3.70;;;26.50;56.00;;;;;;11135356;26;20000;-41
2024/04/13 20:44:20;;;;;;;7.95;3.40;;;26.40;55.90;;;;;;11136673;26;20004;-43
2024/04/13 20:49:24;;;;;;;5.25;3.22;;;26.10;56.70;;;;;;11136687;26;20011;-45
2024/04/13 20:54:27;;;;;;;5.30;3.33;;;26.30;55.90;;;;;;11136479;26;19996;-42
2024/04/13 20:59:33;;;;;;;4.90;3.70;;;26.30;55.50;;;;;;11136648;26;20081;-42
2024/04/13 21:04:36;;;;;;;5.45;3.30;;;26.00;55.50;;;;;;11135965;26;20407;-42
2024/04/13 21:09:39;;;;;;;4.57;3.20;;;26.00;55.70;;;;;;11136561;26;20008;-43
2024/04/13 21:14:45;;;;;;;4.60;3.20;;;25.90;56.00;;;;;;11136433;26;20000;-42
2024/04/13 21:19:49;;;;;;;4.82;3.45;;;25.90;55.70;;;;;;11135542;26;20843;-42
2024/04/13 21:24:53;;;;;;;4.65;3.15;;;26.10;55.20;;;;;;11135586;26;20008;-43
2024/04/13 21:29:59;;;;;;;4.90;3.70;;;26.00;55.40;;;;;;11132889;26;20044;-44
2024/04/13 21:35:03;;;;;;;4.80;3.33;;;26.40;54.60;;;;;;11135031;26;20000;-43
2024/04/13 21:40:07;;;;;;;4.82;3.50;;;26.60;53.70;;;;;;11135051;26;20465;-46
2024/04/13 21:45:13;;;;;;;5.05;3.42;;;26.30;54.20;;;;;;11134466;26;20420;-42
2024/04/13 21:50:17;;;;;;;4.65;3.35;;;26.30;53.70;;;;;;11138446;26;20078;-42
2024/04/13 21:55:20;;;;;;;6.72;3.53;;;26.00;54.10;;;;;;11141386;26;20016;-42
2024/04/13 22:00:26;;;;;;;5.90;3.47;;;25.70;54.90;;;;;;11140169;26;20049;-42
2024/04/13 22:05:29;;;;;;;5.35;3.60;;;25.40;55.60;;;;;;11140839;26;20004;-43
2024/04/13 22:10:32;;;;;;;4.75;3.30;;;25.40;55.40;;;;;;11141199;26;20012;-42
2024/04/13 22:15:38;;;;;;;6.07;3.50;;;25.10;55.70;;;;;;11141051;26;20011;-42
2024/04/13 22:20:41;;;;;;;6.38;3.10;;;24.90;55.70;;;;;;11140859;26;20015;-42
2024/04/13 22:25:45;;;;;;;4.68;2.78;;;24.90;55.40;;;;;;11140703;26;20357;-41
2024/04/13 22:30:51;;;;;;;4.03;2.60;;;24.90;55.30;;;;;;11140303;26;20015;-44
2024/04/13 22:35:54;;;;;;;3.97;2.20;;;24.80;54.60;;;;;;11140741;26;20000;-42
2024/04/13 22:40:57;;;;;;;4.35;1.90;;;24.80;54.10;;;;;;11140368;26;20000;-42
2024/04/13 22:46:04;;;;;;;2.85;1.95;;;24.70;54.20;;;;;;11140113;26;20008;-42
2024/04/13 22:51:07;;;;;;;2.40;1.70;;;24.70;54.10;;;;;;11140097;26;20077;-42
2024/04/13 22:56:10;;;;;;;4.57;2.05;;;24.70;53.90;;;;;;11139874;26;20023;-43
2024/04/13 23:01:16;;;;;;;3.20;2.10;;;24.70;53.70;;;;;;11138993;26;20000;-42
2024/04/13 23:06:19;;;;;;;4.70;1.70;;;24.60;53.70;;;;;;11139621;26;20004;-42
2024/04/13 23:11:23;;;;;;;2.70;2.00;;;24.50;53.50;;;;;;11139545;26;20008;-42
2024/04/13 23:16:28;;;;;;;3.03;1.85;;;24.60;52.80;;;;;;11139357;26;20008;-42
2024/04/13 23:21:34;;;;;;;4.20;1.95;;;24.60;52.70;;;;;;11139281;26;19997;-42
2024/04/13 23:26:39;;;;;;;3.13;1.92;;;24.60;52.40;;;;;;11139584;26;20054;-42
2024/04/13 23:31:44;;;;;;;2.30;1.48;;;24.50;52.30;;;;;;11138613;26;19996;-41
2024/04/13 23:36:48;;;;;;;3.28;1.70;;;24.50;52.50;;;;;;11139006;26;20473;-42
2024/04/13 23:41:51;;;;;;;4.88;1.90;;;24.50;52.10;;;;;;11138605;26;20076;-43
2024/04/13 23:46:57;;;;;;;3.95;1.83;;;24.50;52.20;;;;;;11138470;26;20015;-41
2024/04/13 23:52:00;;;;;;;3.83;1.52;;;24.50;52.30;;;;;;11138273;26;20004;-42
2024/04/13 23:57:03;;;;;;;4.13;1.58;;;24.40;52.30;;;;;;11138147;26;20008;-45
